sensor_id;sensor_type;location;lat;lon;timestamp;P1;durP1;ratioP1;P2;durP2;ratioP2
13386;SDS011;6763;48.524;9.044;2024-01-15T00:01:04;8.03;;;3.70;;
13386;SDS011;6763;48.524;9.044;2024-01-15T00:03:29;9.47;;;4.20;;
13386;SDS011;6763;48.524;9.044;2024-01-15T00:05:54;11.90;;;3.73;;
13386;SDS011;6763;48.524;9.044;2024-01-15T00:08:20;6.50;;;4.03;;
13386;SDS011;6763;48.524;9.044;2024-01-15T00:10:45;12.43;;;4.03;;
13386;SDS011;6763;48.524;9.044;2024-01-15T00:13:10;9.07;;;4.23;;
13386;SDS011;6763;48.524;9.044;2024-01-15T00:15:36;6.50;;;3.83;;
13386;SDS011;6763;48.524;9.044;2024-01-15T00:18:01;11.17;;;4.17;;
13386;SDS011;6763;48.524;9.044;2024-01-15T00:20:26;11.57;;;4.67;;
13386;SDS011;6763;48.524;9.044;2024-01-15T00:22:52;11.00;;;4.73;;
13386;SDS011;6763;48.524;9.044;2024-01-15T00:25:17;12.63;;;4.93;;
13386;SDS011;6763;48.524;9.044;2024-01-15T00:27:42;11.00;;;3.67;;
13386;SDS011;6763;48.524;9.044;2024-01-15T00:30:08;9.70;;;3.70;;
13386;SDS011;6763;48.524;9.044;2024-01-15T00:32:34;7.40;;;3.73;;
13386;SDS011;6763;48.524;9.044;2024-01-15T00:34:59;14.03;;;5.50;;
13386;SDS011;6763;48.524;9.044;2024-01-15T00:37:24;9.07;;;3.83;;
13386;SDS011;6763;48.524;9.044;2024-01-15T00:39:50;5.37;;;3.53;;
13386;SDS011;6763;48.524;9.044;2024-01-15T00:42:15;10.07;;;4.30;;
13386;SDS011;6763;48.524;9.044;2024-01-15T00:44:41;9.53;;;3.70;;
13386;SDS011;6763;48.524;9.044;2024-01-15T00:47:07;8.40;;;3.57;;
13386;SDS011;6763;48.524;9.044;2024-01-15T00:49:32;16.17;;;4.13;;
13386;SDS011;6763;48.524;9.044;2024-01-15T00:51:58;7.80;;;3.67;;
13386;SDS011;6763;48.524;9.044;2024-01-15T00:54:23;8.50;;;4.10;;
13386;SDS011;6763;48.524;9.044;2024-01-15T00:56:49;8.83;;;4.77;;
13386;SDS011;6763;48.524;9.044;2024-01-15T00:59:14;9.07;;;3.93;;
13386;SDS011;6763;48.524;9.044;2024-01-15T01:01:42;11.53;;;4.93;;
13386;SDS011;6763;48.524;9.044;2024-01-15T01:04:11;9.03;;;4.10;;
13386;SDS011;6763;48.524;9.044;2024-01-15T01:06:37;8.03;;;3.33;;
13386;SDS011;6763;48.524;9.044;2024-01-15T01:09:03;8.07;;;4.40;;
13386;SDS011;6763;48.524;9.044;2024-01-15T01:11:28;9.10;;;3.47;;
13386;SDS011;6763;48.524;9.044;2024-01-15T01:13:54;7.80;;;4.03;;
13386;SDS011;6763;48.524;9.044;2024-01-15T01:16:21;7.33;;;3.30;;
13386;SDS011;6763;48.524;9.044;2024-01-15T01:18:46;12.33;;;3.73;;
13386;SDS011;6763;48.524;9.044;2024-01-15T01:21:12;8.53;;;3.73;;
13386;SDS011;6763;48.524;9.044;2024-01-15T01:23:37;10.47;;;4.30;;
13386;SDS011;6763;48.524;9.044;2024-01-15T01:26:03;9.00;;;3.77;;
13386;SDS011;6763;48.524;9.044;2024-01-15T01:28:28;10.53;;;4.60;;
13386;SDS011;6763;48.524;9.044;2024-01-15T01:30:54;7.30;;;4.20;;
13386;SDS011;6763;48.524;9.044;2024-01-15T01:33:19;11.20;;;4.13;;
13386;SDS011;6763;48.524;9.044;2024-01-15T01:35:45;7.93;;;3.53;;
13386;SDS011;6763;48.524;9.044;2024-01-15T01:38:11;11.20;;;4.67;;
13386;SDS011;6763;48.524;9.044;2024-01-15T01:40:37;10.80;;;4.03;;
13386;SDS011;6763;48.524;9.044;2024-01-15T01:43:03;8.30;;;3.83;;
13386;SDS011;6763;48.524;9.044;2024-01-15T01:45:29;9.67;;;4.03;;
13386;SDS011;6763;48.524;9.044;2024-01-15T01:47:55;6.97;;;3.23;;
13386;SDS011;6763;48.524;9.044;2024-01-15T01:50:20;5.10;;;3.43;;
13386;SDS011;6763;48.524;9.044;2024-01-15T01:52:46;8.27;;;3.83;;
13386;SDS011;6763;48.524;9.044;2024-01-15T01:55:11;8.73;;;3.87;;
13386;SDS011;6763;48.524;9.044;2024-01-15T01:57:37;8.10;;;3.73;;
13386;SDS011;6763;48.524;9.044;2024-01-15T02:00:03;6.10;;;3.40;;
13386;SDS011;6763;48.524;9.044;2024-01-15T02:02:30;8.20;;;3.60;;
13386;SDS011;6763;48.524;9.044;2024-01-15T02:04:57;7.63;;;3.97;;
13386;SDS011;6763;48.524;9.044;2024-01-15T02:07:22;8.17;;;3.93;;
13386;SDS011;6763;48.524;9.044;2024-01-15T02:09:47;6.17;;;3.50;;
13386;SDS011;6763;48.524;9.044;2024-01-15T02:12:14;5.90;;;3.10;;
13386;SDS011;6763;48.524;9.044;2024-01-15T02:14:40;9.00;;;4.10;;
13386;SDS011;6763;48.524;9.044;2024-01-15T02:17:05;8.40;;;3.70;;
13386;SDS011;6763;48.524;9.044;2024-01-15T02:19:31;7.77;;;3.87;;
13386;SDS011;6763;48.524;9.044;2024-01-15T02:21:56;6.13;;;2.87;;
13386;SDS011;6763;48.524;9.044;2024-01-15T02:24:25;4.90;;;2.60;;
13386;SDS011;6763;48.524;9.044;2024-01-15T02:26:50;4.33;;;3.17;;
13386;SDS011;6763;48.524;9.044;2024-01-15T02:29:16;9.00;;;3.70;;
13386;SDS011;6763;48.524;9.044;2024-01-15T02:31:42;7.57;;;3.50;;
13386;SDS011;6763;48.524;9.044;2024-01-15T02:34:08;6.43;;;3.20;;
13386;SDS011;6763;48.524;9.044;2024-01-15T02:36:33;8.10;;;3.67;;
13386;SDS011;6763;48.524;9.044;2024-01-15T02:38:58;7.97;;;3.47;;
13386;SDS011;6763;48.524;9.044;2024-01-15T02:41:24;6.90;;;3.10;;
13386;SDS011;6763;48.524;9.044;2024-01-15T02:43:49;7.93;;;2.97;;
13386;SDS011;6763;48.524;9.044;2024-01-15T02:46:14;5.63;;;2.70;;
13386;SDS011;6763;48.524;9.044;2024-01-15T02:48:41;6.13;;;2.67;;
13386;SDS011;6763;48.524;9.044;2024-01-15T02:51:06;7.03;;;3.00;;
13386;SDS011;6763;48.524;9.044;2024-01-15T02:53:31;8.47;;;3.07;;
13386;SDS011;6763;48.524;9.044;2024-01-15T02:55:57;7.73;;;3.33;;
13386;SDS011;6763;48.524;9.044;2024-01-15T02:58:22;8.47;;;3.17;;
13386;SDS011;6763;48.524;9.044;2024-01-15T03:00:48;5.87;;;2.97;;
13386;SDS011;6763;48.524;9.044;2024-01-15T03:03:13;10.40;;;4.37;;
13386;SDS011;6763;48.524;9.044;2024-01-15T03:05:38;5.80;;;2.77;;
13386;SDS011;6763;48.524;9.044;2024-01-15T03:08:04;7.23;;;3.63;;
13386;SDS011;6763;48.524;9.044;2024-01-15T03:10:29;6.63;;;3.43;;
13386;SDS011;6763;48.524;9.044;2024-01-15T03:12:54;8.03;;;3.00;;
13386;SDS011;6763;48.524;9.044;2024-01-15T03:15:20;7.50;;;3.20;;
13386;SDS011;6763;48.524;9.044;2024-01-15T03:17:45;9.30;;;3.60;;
13386;SDS011;6763;48.524;9.044;2024-01-15T03:20:11;10.17;;;4.00;;
13386;SDS011;6763;48.524;9.044;2024-01-15T03:22:36;7.37;;;3.50;;
13386;SDS011;6763;48.524;9.044;2024-01-15T03:25:03;9.17;;;4.03;;
13386;SDS011;6763;48.524;9.044;2024-01-15T03:27:29;7.10;;;3.27;;
13386;SDS011;6763;48.524;9.044;2024-01-15T03:29:54;8.57;;;3.17;;
13386;SDS011;6763;48.524;9.044;2024-01-15T03:32:19;7.60;;;3.37;;
13386;SDS011;6763;48.524;9.044;2024-01-15T03:34:45;7.53;;;3.93;;
13386;SDS011;6763;48.524;9.044;2024-01-15T03:37:12;5.70;;;3.23;;
13386;SDS011;6763;48.524;9.044;2024-01-15T03:39:37;8.10;;;4.30;;
13386;SDS011;6763;48.524;9.044;2024-01-15T03:42:03;10.13;;;3.73;;
13386;SDS011;6763;48.524;9.044;2024-01-15T03:44:28;7.03;;;3.17;;
13386;SDS011;6763;48.524;9.044;2024-01-15T03:46:54;9.10;;;3.70;;
13386;SDS011;6763;48.524;9.044;2024-01-15T03:49:20;11.53;;;4.10;;
13386;SDS011;6763;48.524;9.044;2024-01-15T03:51:45;9.50;;;3.47;;
13386;SDS011;6763;48.524;9.044;2024-01-15T03:54:10;6.10;;;2.97;;
13386;SDS011;6763;48.524;9.044;2024-01-15T03:56:36;9.77;;;4.37;;
13386;SDS011;6763;48.524;9.044;2024-01-15T03:59:01;5.43;;;3.27;;
13386;SDS011;6763;48.524;9.044;2024-01-15T04:01:26;7.07;;;3.20;;
13386;SDS011;6763;48.524;9.044;2024-01-15T04:03:52;9.23;;;3.60;;
13386;SDS011;6763;48.524;9.044;2024-01-15T04:06:17;5.67;;;3.33;;
13386;SDS011;6763;48.524;9.044;2024-01-15T04:08:42;8.97;;;3.70;;
13386;SDS011;6763;48.524;9.044;2024-01-15T04:11:08;7.50;;;3.60;;
13386;SDS011;6763;48.524;9.044;2024-01-15T04:13:33;5.30;;;3.17;;
13386;SDS011;6763;48.524;9.044;2024-01-15T04:15:59;8.73;;;3.20;;
13386;SDS011;6763;48.524;9.044;2024-01-15T04:18:25;7.43;;;3.17;;
13386;SDS011;6763;48.524;9.044;2024-01-15T04:20:51;6.73;;;3.43;;
13386;SDS011;6763;48.524;9.044;2024-01-15T04:23:16;8.33;;;3.53;;
13386;SDS011;6763;48.524;9.044;2024-01-15T04:25:42;8.83;;;3.90;;
13386;SDS011;6763;48.524;9.044;2024-01-15T04:28:08;10.47;;;4.07;;
13386;SDS011;6763;48.524;9.044;2024-01-15T04:30:34;10.70;;;3.97;;
13386;SDS011;6763;48.524;9.044;2024-01-15T04:32:59;6.73;;;3.87;;
13386;SDS011;6763;48.524;9.044;2024-01-15T04:35:24;6.10;;;3.40;;
13386;SDS011;6763;48.524;9.044;2024-01-15T04:37:49;8.77;;;3.53;;
13386;SDS011;6763;48.524;9.044;2024-01-15T04:40:15;8.80;;;3.17;;
13386;SDS011;6763;48.524;9.044;2024-01-15T04:42:40;9.47;;;3.43;;
13386;SDS011;6763;48.524;9.044;2024-01-15T04:45:05;9.83;;;3.93;;
13386;SDS011;6763;48.524;9.044;2024-01-15T04:47:31;6.20;;;3.10;;
13386;SDS011;6763;48.524;9.044;2024-01-15T04:49:56;7.60;;;3.67;;
13386;SDS011;6763;48.524;9.044;2024-01-15T04:52:21;12.07;;;4.37;;
13386;SDS011;6763;48.524;9.044;2024-01-15T04:54:47;7.13;;;3.13;;
13386;SDS011;6763;48.524;9.044;2024-01-15T04:57:12;8.83;;;4.50;;
13386;SDS011;6763;48.524;9.044;2024-01-15T04:59:38;8.87;;;3.73;;
13386;SDS011;6763;48.524;9.044;2024-01-15T05:02:03;7.13;;;4.00;;
13386;SDS011;6763;48.524;9.044;2024-01-15T05:04:28;9.03;;;3.17;;
13386;SDS011;6763;48.524;9.044;2024-01-15T05:06:55;6.83;;;3.50;;
13386;SDS011;6763;48.524;9.044;2024-01-15T05:09:20;8.10;;;3.47;;
13386;SDS011;6763;48.524;9.044;2024-01-15T05:11:45;7.87;;;3.50;;
13386;SDS011;6763;48.524;9.044;2024-01-15T05:14:11;8.97;;;4.17;;
13386;SDS011;6763;48.524;9.044;2024-01-15T05:16:40;8.53;;;3.73;;
13386;SDS011;6763;48.524;9.044;2024-01-15T05:19:11;9.97;;;4.30;;
13386;SDS011;6763;48.524;9.044;2024-01-15T05:21:36;8.83;;;3.50;;
13386;SDS011;6763;48.524;9.044;2024-01-15T05:24:02;8.43;;;3.87;;
13386;SDS011;6763;48.524;9.044;2024-01-15T05:26:27;6.93;;;3.93;;
13386;SDS011;6763;48.524;9.044;2024-01-15T05:28:52;8.03;;;3.47;;
13386;SDS011;6763;48.524;9.044;2024-01-15T05:31:18;7.03;;;3.10;;
13386;SDS011;6763;48.524;9.044;2024-01-15T05:33:44;9.70;;;4.20;;
13386;SDS011;6763;48.524;9.044;2024-01-15T05:36:09;7.93;;;4.53;;
13386;SDS011;6763;48.524;9.044;2024-01-15T05:38:35;7.93;;;3.73;;
13386;SDS011;6763;48.524;9.044;2024-01-15T05:41:00;8.97;;;3.73;;
13386;SDS011;6763;48.524;9.044;2024-01-15T05:43:25;9.43;;;4.83;;
13386;SDS011;6763;48.524;9.044;2024-01-15T05:45:51;5.57;;;3.77;;
13386;SDS011;6763;48.524;9.044;2024-01-15T05:48:16;10.40;;;4.27;;
13386;SDS011;6763;48.524;9.044;2024-01-15T05:50:41;7.23;;;3.30;;
13386;SDS011;6763;48.524;9.044;2024-01-15T05:53:07;6.23;;;3.50;;
13386;SDS011;6763;48.524;9.044;2024-01-15T05:55:33;7.23;;;3.97;;
13386;SDS011;6763;48.524;9.044;2024-01-15T05:57:58;9.47;;;3.73;;
13386;SDS011;6763;48.524;9.044;2024-01-15T06:00:23;8.77;;;3.77;;
13386;SDS011;6763;48.524;9.044;2024-01-15T06:02:49;5.60;;;3.17;;
13386;SDS011;6763;48.524;9.044;2024-01-15T06:05:14;7.47;;;3.50;;
13386;SDS011;6763;48.524;9.044;2024-01-15T06:07:39;7.00;;;4.03;;
13386;SDS011;6763;48.524;9.044;2024-01-15T06:10:05;8.87;;;3.67;;
13386;SDS011;6763;48.524;9.044;2024-01-15T06:12:31;6.40;;;3.00;;
13386;SDS011;6763;48.524;9.044;2024-01-15T06:14:57;7.17;;;3.00;;
13386;SDS011;6763;48.524;9.044;2024-01-15T06:17:22;7.13;;;3.63;;
13386;SDS011;6763;48.524;9.044;2024-01-15T06:19:48;8.17;;;3.77;;
13386;SDS011;6763;48.524;9.044;2024-01-15T06:22:13;7.00;;;3.80;;
13386;SDS011;6763;48.524;9.044;2024-01-15T06:24:38;8.10;;;3.60;;
13386;SDS011;6763;48.524;9.044;2024-01-15T06:27:04;15.47;;;4.63;;
13386;SDS011;6763;48.524;9.044;2024-01-15T06:29:29;8.93;;;3.40;;
13386;SDS011;6763;48.524;9.044;2024-01-15T06:31:55;10.63;;;4.20;;
13386;SDS011;6763;48.524;9.044;2024-01-15T06:34:21;7.33;;;3.50;;
13386;SDS011;6763;48.524;9.044;2024-01-15T06:36:47;9.43;;;3.30;;
13386;SDS011;6763;48.524;9.044;2024-01-15T06:39:12;9.43;;;3.40;;
13386;SDS011;6763;48.524;9.044;2024-01-15T06:41:38;9.67;;;4.43;;
13386;SDS011;6763;48.524;9.044;2024-01-15T06:44:08;6.50;;;3.13;;
13386;SDS011;6763;48.524;9.044;2024-01-15T06:46:35;7.93;;;3.80;;
13386;SDS011;6763;48.524;9.044;2024-01-15T06:49:00;8.10;;;3.57;;
13386;SDS011;6763;48.524;9.044;2024-01-15T06:51:25;7.90;;;3.87;;
13386;SDS011;6763;48.524;9.044;2024-01-15T06:53:51;7.00;;;3.87;;
13386;SDS011;6763;48.524;9.044;2024-01-15T06:56:16;7.40;;;3.90;;
13386;SDS011;6763;48.524;9.044;2024-01-15T06:58:41;7.67;;;3.33;;
13386;SDS011;6763;48.524;9.044;2024-01-15T07:01:07;6.67;;;3.77;;
13386;SDS011;6763;48.524;9.044;2024-01-15T07:03:33;6.43;;;3.23;;
13386;SDS011;6763;48.524;9.044;2024-01-15T07:05:58;4.87;;;3.00;;
13386;SDS011;6763;48.524;9.044;2024-01-15T07:08:24;5.40;;;3.17;;
13386;SDS011;6763;48.524;9.044;2024-01-15T07:10:49;6.30;;;3.43;;
13386;SDS011;6763;48.524;9.044;2024-01-15T07:13:14;6.43;;;3.27;;
13386;SDS011;6763;48.524;9.044;2024-01-15T07:15:40;8.73;;;3.40;;
13386;SDS011;6763;48.524;9.044;2024-01-15T07:18:05;8.40;;;3.50;;
13386;SDS011;6763;48.524;9.044;2024-01-15T07:20:30;8.87;;;3.57;;
13386;SDS011;6763;48.524;9.044;2024-01-15T07:22:56;6.60;;;3.10;;
13386;SDS011;6763;48.524;9.044;2024-01-15T07:25:21;6.97;;;3.53;;
13386;SDS011;6763;48.524;9.044;2024-01-15T07:27:47;6.73;;;2.63;;
13386;SDS011;6763;48.524;9.044;2024-01-15T07:30:12;4.50;;;3.00;;
13386;SDS011;6763;48.524;9.044;2024-01-15T07:32:38;6.07;;;3.17;;
13386;SDS011;6763;48.524;9.044;2024-01-15T07:35:03;7.23;;;3.23;;
13386;SDS011;6763;48.524;9.044;2024-01-15T07:37:30;7.07;;;2.83;;
13386;SDS011;6763;48.524;9.044;2024-01-15T07:39:55;7.47;;;4.33;;
13386;SDS011;6763;48.524;9.044;2024-01-15T07:42:20;5.60;;;3.80;;
13386;SDS011;6763;48.524;9.044;2024-01-15T07:44:46;3.90;;;2.60;;
13386;SDS011;6763;48.524;9.044;2024-01-15T07:47:12;6.00;;;2.90;;
13386;SDS011;6763;48.524;9.044;2024-01-15T07:49:37;6.33;;;3.10;;
13386;SDS011;6763;48.524;9.044;2024-01-15T07:52:02;7.47;;;3.27;;
13386;SDS011;6763;48.524;9.044;2024-01-15T07:54:30;8.77;;;3.90;;
13386;SDS011;6763;48.524;9.044;2024-01-15T07:56:56;7.40;;;3.70;;
13386;SDS011;6763;48.524;9.044;2024-01-15T07:59:23;5.87;;;3.30;;
13386;SDS011;6763;48.524;9.044;2024-01-15T08:01:49;5.43;;;2.90;;
13386;SDS011;6763;48.524;9.044;2024-01-15T08:04:14;8.73;;;2.93;;
13386;SDS011;6763;48.524;9.044;2024-01-15T08:06:39;6.23;;;3.37;;
13386;SDS011;6763;48.524;9.044;2024-01-15T08:09:05;4.80;;;2.37;;
13386;SDS011;6763;48.524;9.044;2024-01-15T08:11:30;7.63;;;3.30;;
13386;SDS011;6763;48.524;9.044;2024-01-15T08:13:56;7.37;;;3.80;;
13386;SDS011;6763;48.524;9.044;2024-01-15T08:16:21;4.53;;;2.77;;
13386;SDS011;6763;48.524;9.044;2024-01-15T08:18:47;4.77;;;2.53;;
13386;SDS011;6763;48.524;9.044;2024-01-15T08:21:12;5.33;;;2.67;;
13386;SDS011;6763;48.524;9.044;2024-01-15T08:23:38;4.77;;;2.57;;
13386;SDS011;6763;48.524;9.044;2024-01-15T08:26:04;6.80;;;2.77;;
13386;SDS011;6763;48.524;9.044;2024-01-15T08:28:29;6.63;;;3.00;;
13386;SDS011;6763;48.524;9.044;2024-01-15T08:30:55;4.40;;;2.40;;
13386;SDS011;6763;48.524;9.044;2024-01-15T08:33:21;7.70;;;3.50;;
13386;SDS011;6763;48.524;9.044;2024-01-15T08:35:46;5.87;;;3.00;;
13386;SDS011;6763;48.524;9.044;2024-01-15T08:38:11;4.67;;;2.30;;
13386;SDS011;6763;48.524;9.044;2024-01-15T08:40:36;3.40;;;2.50;;
13386;SDS011;6763;48.524;9.044;2024-01-15T08:43:02;5.70;;;2.63;;
13386;SDS011;6763;48.524;9.044;2024-01-15T08:45:27;3.57;;;2.03;;
13386;SDS011;6763;48.524;9.044;2024-01-15T08:47:53;6.40;;;2.20;;
13386;SDS011;6763;48.524;9.044;2024-01-15T08:50:18;4.73;;;2.00;;
13386;SDS011;6763;48.524;9.044;2024-01-15T08:52:43;5.77;;;2.10;;
13386;SDS011;6763;48.524;9.044;2024-01-15T08:55:09;3.43;;;2.27;;
13386;SDS011;6763;48.524;9.044;2024-01-15T08:57:34;3.87;;;2.40;;
13386;SDS011;6763;48.524;9.044;2024-01-15T08:59:59;3.83;;;2.10;;
13386;SDS011;6763;48.524;9.044;2024-01-15T09:02:25;5.90;;;2.27;;
13386;SDS011;6763;48.524;9.044;2024-01-15T09:04:50;4.50;;;2.03;;
13386;SDS011;6763;48.524;9.044;2024-01-15T09:07:16;3.63;;;2.20;;
13386;SDS011;6763;48.524;9.044;2024-01-15T09:09:42;6.10;;;2.57;;
13386;SDS011;6763;48.524;9.044;2024-01-15T09:12:07;2.67;;;1.77;;
13386;SDS011;6763;48.524;9.044;2024-01-15T09:14:33;5.37;;;2.27;;
13386;SDS011;6763;48.524;9.044;2024-01-15T09:16:59;3.53;;;1.97;;
13386;SDS011;6763;48.524;9.044;2024-01-15T09:19:24;3.97;;;2.30;;
13386;SDS011;6763;48.524;9.044;2024-01-15T09:21:50;3.30;;;1.87;;
13386;SDS011;6763;48.524;9.044;2024-01-15T09:24:15;4.20;;;2.07;;
13386;SDS011;6763;48.524;9.044;2024-01-15T09:26:40;3.10;;;2.03;;
13386;SDS011;6763;48.524;9.044;2024-01-15T09:29:06;3.30;;;1.67;;
13386;SDS011;6763;48.524;9.044;2024-01-15T09:31:31;3.43;;;2.13;;
13386;SDS011;6763;48.524;9.044;2024-01-15T09:33:57;2.17;;;1.40;;
13386;SDS011;6763;48.524;9.044;2024-01-15T09:36:24;4.93;;;2.03;;
13386;SDS011;6763;48.524;9.044;2024-01-15T09:38:50;5.17;;;2.23;;
13386;SDS011;6763;48.524;9.044;2024-01-15T09:41:16;6.17;;;2.77;;
13386;SDS011;6763;48.524;9.044;2024-01-15T09:43:41;3.93;;;1.80;;
13386;SDS011;6763;48.524;9.044;2024-01-15T09:46:08;3.27;;;1.97;;
13386;SDS011;6763;48.524;9.044;2024-01-15T09:48:34;3.03;;;1.73;;
13386;SDS011;6763;48.524;9.044;2024-01-15T09:51:00;2.73;;;1.37;;
13386;SDS011;6763;48.524;9.044;2024-01-15T09:53:26;2.20;;;1.30;;
13386;SDS011;6763;48.524;9.044;2024-01-15T09:55:52;2.63;;;1.17;;
13386;SDS011;6763;48.524;9.044;2024-01-15T09:58:18;2.77;;;1.40;;
13386;SDS011;6763;48.524;9.044;2024-01-15T10:00:44;3.20;;;1.97;;
13386;SDS011;6763;48.524;9.044;2024-01-15T10:03:10;1.83;;;1.33;;
13386;SDS011;6763;48.524;9.044;2024-01-15T10:05:36;1.40;;;1.03;;
13386;SDS011;6763;48.524;9.044;2024-01-15T10:08:02;2.00;;;1.27;;
13386;SDS011;6763;48.524;9.044;2024-01-15T10:10:29;2.50;;;1.00;;
13386;SDS011;6763;48.524;9.044;2024-01-15T10:12:56;2.83;;;1.40;;
13386;SDS011;6763;48.524;9.044;2024-01-15T10:15:25;3.17;;;0.93;;
13386;SDS011;6763;48.524;9.044;2024-01-15T10:17:51;1.70;;;1.07;;
13386;SDS011;6763;48.524;9.044;2024-01-15T10:20:16;1.83;;;1.20;;
13386;SDS011;6763;48.524;9.044;2024-01-15T10:22:42;3.67;;;1.30;;
13386;SDS011;6763;48.524;9.044;2024-01-15T10:25:12;2.03;;;1.47;;
13386;SDS011;6763;48.524;9.044;2024-01-15T10:27:37;3.40;;;1.03;;
13386;SDS011;6763;48.524;9.044;2024-01-15T10:30:03;2.17;;;1.23;;
13386;SDS011;6763;48.524;9.044;2024-01-15T10:32:29;2.20;;;0.87;;
13386;SDS011;6763;48.524;9.044;2024-01-15T10:34:54;1.43;;;0.83;;
13386;SDS011;6763;48.524;9.044;2024-01-15T10:37:20;2.53;;;1.00;;
13386;SDS011;6763;48.524;9.044;2024-01-15T10:39:48;2.90;;;1.50;;
13386;SDS011;6763;48.524;9.044;2024-01-15T10:42:13;1.87;;;1.20;;
13386;SDS011;6763;48.524;9.044;2024-01-15T10:44:39;1.37;;;1.10;;
13386;SDS011;6763;48.524;9.044;2024-01-15T10:47:08;2.20;;;1.27;;
13386;SDS011;6763;48.524;9.044;2024-01-15T10:49:34;1.77;;;1.00;;
13386;SDS011;6763;48.524;9.044;2024-01-15T10:52:02;2.00;;;1.10;;
13386;SDS011;6763;48.524;9.044;2024-01-15T10:54:28;1.37;;;0.93;;
13386;SDS011;6763;48.524;9.044;2024-01-15T10:56:55;1.30;;;1.20;;
13386;SDS011;6763;48.524;9.044;2024-01-15T10:59:21;3.17;;;0.93;;
13386;SDS011;6763;48.524;9.044;2024-01-15T11:01:50;2.67;;;1.10;;
13386;SDS011;6763;48.524;9.044;2024-01-15T11:04:18;1.90;;;1.10;;
13386;SDS011;6763;48.524;9.044;2024-01-15T11:06:46;2.33;;;1.20;;
13386;SDS011;6763;48.524;9.044;2024-01-15T11:09:14;1.53;;;1.20;;
13386;SDS011;6763;48.524;9.044;2024-01-15T11:11:41;1.70;;;0.90;;
13386;SDS011;6763;48.524;9.044;2024-01-15T11:14:10;1.83;;;1.20;;
13386;SDS011;6763;48.524;9.044;2024-01-15T11:16:54;1.40;;;0.97;;
13386;SDS011;6763;48.524;9.044;2024-01-15T11:19:34;2.20;;;1.43;;
13386;SDS011;6763;48.524;9.044;2024-01-15T11:22:01;2.27;;;1.53;;
13386;SDS011;6763;48.524;9.044;2024-01-15T11:24:37;2.13;;;1.30;;
13386;SDS011;6763;48.524;9.044;2024-01-15T11:27:04;2.73;;;1.60;;
13386;SDS011;6763;48.524;9.044;2024-01-15T11:29:31;4.20;;;1.40;;
13386;SDS011;6763;48.524;9.044;2024-01-15T11:32:09;1.43;;;1.13;;
13386;SDS011;6763;48.524;9.044;2024-01-15T11:37:23;1.57;;;1.07;;
13386;SDS011;6763;48.524;9.044;2024-01-15T11:39:51;2.80;;;1.20;;
13386;SDS011;6763;48.524;9.044;2024-01-15T11:42:20;2.13;;;1.53;;
13386;SDS011;6763;48.524;9.044;2024-01-15T11:44:47;1.57;;;1.23;;
13386;SDS011;6763;48.524;9.044;2024-01-15T11:47:12;2.40;;;1.40;;
13386;SDS011;6763;48.524;9.044;2024-01-15T11:49:57;1.90;;;1.20;;
13386;SDS011;6763;48.524;9.044;2024-01-15T11:52:37;1.90;;;1.53;;
13386;SDS011;6763;48.524;9.044;2024-01-15T12:00:15;1.90;;;1.50;;
13386;SDS011;6763;48.524;9.044;2024-01-15T12:02:41;1.83;;;1.30;;
13386;SDS011;6763;48.524;9.044;2024-01-15T12:05:09;2.70;;;1.50;;
13386;SDS011;6763;48.524;9.044;2024-01-15T12:07:37;2.30;;;1.00;;
13386;SDS011;6763;48.524;9.044;2024-01-15T12:10:02;2.23;;;1.53;;
13386;SDS011;6763;48.524;9.044;2024-01-15T12:15:17;2.93;;;1.50;;
13386;SDS011;6763;48.524;9.044;2024-01-15T12:17:42;3.93;;;2.10;;
13386;SDS011;6763;48.524;9.044;2024-01-15T12:20:08;2.33;;;1.50;;
13386;SDS011;6763;48.524;9.044;2024-01-15T12:22:34;4.03;;;1.27;;
13386;SDS011;6763;48.524;9.044;2024-01-15T12:25:00;2.30;;;1.67;;
13386;SDS011;6763;48.524;9.044;2024-01-15T12:27:25;2.47;;;1.33;;
13386;SDS011;6763;48.524;9.044;2024-01-15T12:29:52;2.97;;;1.40;;
13386;SDS011;6763;48.524;9.044;2024-01-15T12:32:18;2.93;;;1.60;;
13386;SDS011;6763;48.524;9.044;2024-01-15T12:34:44;3.20;;;1.67;;
13386;SDS011;6763;48.524;9.044;2024-01-15T12:37:09;2.37;;;1.43;;
13386;SDS011;6763;48.524;9.044;2024-01-15T12:39:36;1.93;;;1.30;;
13386;SDS011;6763;48.524;9.044;2024-01-15T12:42:01;2.50;;;1.40;;
13386;SDS011;6763;48.524;9.044;2024-01-15T12:44:28;3.37;;;1.60;;
13386;SDS011;6763;48.524;9.044;2024-01-15T12:46:53;1.43;;;1.13;;
13386;SDS011;6763;48.524;9.044;2024-01-15T12:49:20;3.97;;;2.13;;
13386;SDS011;6763;48.524;9.044;2024-01-15T12:51:59;3.70;;;2.40;;
13386;SDS011;6763;48.524;9.044;2024-01-15T12:54:24;2.80;;;2.10;;
13386;SDS011;6763;48.524;9.044;2024-01-15T12:56:50;2.93;;;1.73;;
13386;SDS011;6763;48.524;9.044;2024-01-15T12:59:16;4.53;;;2.53;;
13386;SDS011;6763;48.524;9.044;2024-01-15T13:01:42;2.47;;;1.70;;
13386;SDS011;6763;48.524;9.044;2024-01-15T13:04:08;3.27;;;1.77;;
13386;SDS011;6763;48.524;9.044;2024-01-15T13:06:34;4.67;;;2.00;;
13386;SDS011;6763;48.524;9.044;2024-01-15T13:09:02;2.57;;;1.57;;
13386;SDS011;6763;48.524;9.044;2024-01-15T13:11:30;1.93;;;1.30;;
13386;SDS011;6763;48.524;9.044;2024-01-15T13:13:56;5.73;;;2.57;;
13386;SDS011;6763;48.524;9.044;2024-01-15T13:16:22;2.43;;;1.70;;
13386;SDS011;6763;48.524;9.044;2024-01-15T13:18:47;4.13;;;2.27;;
13386;SDS011;6763;48.524;9.044;2024-01-15T13:21:14;5.47;;;2.13;;
13386;SDS011;6763;48.524;9.044;2024-01-15T13:23:40;2.80;;;1.83;;
13386;SDS011;6763;48.524;9.044;2024-01-15T13:26:05;2.87;;;2.10;;
13386;SDS011;6763;48.524;9.044;2024-01-15T13:28:31;4.40;;;2.00;;
13386;SDS011;6763;48.524;9.044;2024-01-15T13:30:56;5.07;;;2.63;;
13386;SDS011;6763;48.524;9.044;2024-01-15T13:33:21;5.27;;;2.53;;
13386;SDS011;6763;48.524;9.044;2024-01-15T13:35:47;3.13;;;1.70;;
13386;SDS011;6763;48.524;9.044;2024-01-15T13:38:15;2.63;;;1.93;;
13386;SDS011;6763;48.524;9.044;2024-01-15T13:40:40;5.40;;;2.43;;
13386;SDS011;6763;48.524;9.044;2024-01-15T13:43:05;3.07;;;2.17;;
13386;SDS011;6763;48.524;9.044;2024-01-15T13:45:33;4.57;;;2.27;;
13386;SDS011;6763;48.524;9.044;2024-01-15T13:47:59;3.23;;;2.03;;
13386;SDS011;6763;48.524;9.044;2024-01-15T13:50:24;4.80;;;2.20;;
13386;SDS011;6763;48.524;9.044;2024-01-15T13:52:50;3.30;;;1.93;;
13386;SDS011;6763;48.524;9.044;2024-01-15T13:55:15;4.30;;;2.17;;
13386;SDS011;6763;48.524;9.044;2024-01-15T13:57:40;4.30;;;2.73;;
13386;SDS011;6763;48.524;9.044;2024-01-15T14:00:06;2.57;;;1.90;;
13386;SDS011;6763;48.524;9.044;2024-01-15T14:02:36;4.73;;;2.17;;
13386;SDS011;6763;48.524;9.044;2024-01-15T14:05:01;3.43;;;2.13;;
13386;SDS011;6763;48.524;9.044;2024-01-15T14:07:27;5.17;;;2.53;;
13386;SDS011;6763;48.524;9.044;2024-01-15T14:09:52;5.23;;;2.13;;
13386;SDS011;6763;48.524;9.044;2024-01-15T14:12:17;2.87;;;2.03;;
13386;SDS011;6763;48.524;9.044;2024-01-15T14:14:43;6.67;;;2.93;;
13386;SDS011;6763;48.524;9.044;2024-01-15T14:17:08;7.77;;;3.17;;
13386;SDS011;6763;48.524;9.044;2024-01-15T14:19:33;10.53;;;3.83;;
13386;SDS011;6763;48.524;9.044;2024-01-15T14:21:59;8.40;;;3.60;;
13386;SDS011;6763;48.524;9.044;2024-01-15T14:24:24;4.33;;;2.43;;
13386;SDS011;6763;48.524;9.044;2024-01-15T14:26:49;6.20;;;2.90;;
13386;SDS011;6763;48.524;9.044;2024-01-15T14:29:15;5.13;;;3.10;;
13386;SDS011;6763;48.524;9.044;2024-01-15T14:31:40;5.60;;;2.67;;
13386;SDS011;6763;48.524;9.044;2024-01-15T14:34:05;6.40;;;3.43;;
13386;SDS011;6763;48.524;9.044;2024-01-15T14:36:32;6.03;;;3.63;;
13386;SDS011;6763;48.524;9.044;2024-01-15T14:38:58;4.93;;;3.13;;
13386;SDS011;6763;48.524;9.044;2024-01-15T14:41:23;5.90;;;2.60;;
13386;SDS011;6763;48.524;9.044;2024-01-15T14:43:49;4.47;;;2.40;;
13386;SDS011;6763;48.524;9.044;2024-01-15T14:46:14;4.37;;;2.30;;
13386;SDS011;6763;48.524;9.044;2024-01-15T14:48:39;3.97;;;2.10;;
13386;SDS011;6763;48.524;9.044;2024-01-15T14:51:05;5.13;;;3.33;;
13386;SDS011;6763;48.524;9.044;2024-01-15T14:53:30;3.80;;;2.33;;
13386;SDS011;6763;48.524;9.044;2024-01-15T14:55:56;2.83;;;1.90;;
13386;SDS011;6763;48.524;9.044;2024-01-15T14:58:21;3.77;;;2.30;;
13386;SDS011;6763;48.524;9.044;2024-01-15T15:00:46;3.60;;;2.10;;
13386;SDS011;6763;48.524;9.044;2024-01-15T15:03:12;3.67;;;2.23;;